Time;durP1;ratioP1;P1;durP2;ratioP2;P2;SDS_P1;SDS_P2;PMS_P1;PMS_P2;Temp;Humidity;BMP_temperature;BMP_pressure;BME280_temperature;BME280_humidity;BME280_pressure;Samples;Min_cycle;Max_cycle;Signal;HPM_P1;HPM_P2
2023/09/18 00:02:25;;;;;;;73.68;44.78;;;16.90;99.90;;;;;;4880183;29;20417;-92
2023/09/18 00:04:52;;;;;;;86.97;44.25;;;16.60;99.90;;;;;;4896111;29;20432;-91
2023/09/18 00:07:18;;;;;;;47.65;38.38;;;16.50;99.90;;;;;;4879357;29;20534;-93
2023/09/18 00:09:43;;;;;;;58.63;40.93;;;16.40;99.90;;;;;;4881313;29;20999;-91
2023/09/18 00:12:09;;;;;;;96.45;47.15;;;16.80;99.90;;;;;;4879289;29;20793;-93
2023/09/18 00:14:36;;;;;;;71.60;46.65;;;17.10;99.90;;;;;;4896568;29;20886;-91
2023/09/18 00:17:02;;;;;;;43.83;39.22;;;16.80;99.90;;;;;;4879578;29;20417;-91
2023/09/18 00:19:28;;;;;;;59.72;43.40;;;16.50;99.90;;;;;;4880324;29;20520;-93
2023/09/18 00:21:54;;;;;;;84.17;48.37;;;16.60;99.90;;;;;;4896141;29;20500;-92
2023/09/18 00:24:20;;;;;;;65.43;42.42;;;16.80;99.90;;;;;;4895190;29;20624;-92
2023/09/18 00:26:47;;;;;;;169.30;55.08;;;16.90;99.90;;;;;;4896081;29;20463;-91
2023/09/18 00:29:14;;;;;;;100.43;49.40;;;16.70;99.90;;;;;;4878786;29;20504;-92
2023/09/18 00:31:39;;;;;;;101.87;48.50;;;16.90;99.90;;;;;;4880290;29;20907;-92
2023/09/18 00:34:05;;;;;;;126.47;48.22;;;16.50;99.90;;;;;;4878629;29;20425;-91
2023/09/18 00:36:31;;;;;;;115.85;52.75;;;16.40;99.90;;;;;;4880339;29;20525;-91
2023/09/18 00:38:56;;;;;;;125.20;50.23;;;16.50;99.90;;;;;;4879403;29;20442;-90
2023/09/18 00:41:22;;;;;;;95.18;48.33;;;16.80;99.90;;;;;;4895398;29;20425;-91
2023/09/18 00:43:48;;;;;;;151.77;53.73;;;16.50;99.90;;;;;;4879736;29;20482;-91
2023/09/18 00:46:13;;;;;;;124.70;51.38;;;16.50;99.90;;;;;;4878597;29;20638;-92
2023/09/18 00:48:39;;;;;;;171.83;56.47;;;16.60;99.90;;;;;;4879942;29;20421;-91
2023/09/18 00:51:08;;;;;;;201.43;63.03;;;16.40;99.90;;;;;;4878663;29;20492;-90
2023/09/18 00:53:33;;;;;;;115.70;54.53;;;16.40;99.90;;;;;;4879510;29;20457;-91
2023/09/18 00:56:00;;;;;;;109.47;52.72;;;16.40;99.90;;;;;;4879278;29;20491;-91
2023/09/18 00:58:27;;;;;;;102.40;53.10;;;16.60;99.90;;;;;;4879480;29;20431;-92
2023/09/18 01:00:53;;;;;;;93.35;51.88;;;16.10;99.90;;;;;;4879434;29;20827;-93
2023/09/18 01:03:21;;;;;;;145.30;59.17;;;16.30;99.90;;;;;;4879117;29;20425;-93
2023/09/18 01:05:47;;;;;;;101.45;51.60;;;16.40;99.90;;;;;;4879835;29;20421;-90
2023/09/18 01:08:12;;;;;;;108.90;54.38;;;16.50;99.90;;;;;;4878181;29;20487;-91
2023/09/18 01:11:03;;;;;;;62.50;46.97;;;16.30;99.90;;;;;;4876246;29;20463;-92
2023/09/18 01:14:04;;;;;;;85.78;51.55;;;16.30;99.90;;;;;;4875408;29;20506;-91
2023/09/18 01:16:58;;;;;;;128.77;58.22;;;16.30;99.90;;;;;;4828756;29;20802;-91
2023/09/18 01:19:46;;;;;;;119.75;60.50;;;16.30;99.90;;;;;;4876119;29;20437;-92
2023/09/18 01:22:16;;;;;;;92.93;52.05;;;16.30;99.90;;;;;;4875175;29;20431;-91
2023/09/18 01:24:44;;;;;;;71.25;49.60;;;16.50;99.90;;;;;;4891659;29;20423;-91
2023/09/18 01:27:14;;;;;;;129.03;60.17;;;16.50;99.90;;;;;;4884390;29;20478;-90
2023/09/18 01:29:40;;;;;;;80.22;51.80;;;16.20;99.90;;;;;;4874813;29;20503;-94
2023/09/18 01:32:06;;;;;;;72.70;49.55;;;16.40;99.90;;;;;;4876408;29;20415;-92
2023/09/18 01:34:45;;;;;;;78.50;48.75;;;16.20;99.90;;;;;;4874691;29;20434;-92
2023/09/18 01:37:12;;;;;;;99.43;58.50;;;16.10;99.90;;;;;;4876024;29;20518;-91
2023/09/18 01:39:39;;;;;;;107.47;59.88;;;16.10;99.90;;;;;;4890816;29;20427;-91
2023/09/18 01:42:06;;;;;;;91.13;56.03;;;16.10;99.90;;;;;;4875332;29;20847;-92
2023/09/18 01:44:33;;;;;;;86.13;52.28;;;16.20;99.90;;;;;;4871617;29;20417;-91
2023/09/18 01:47:03;;;;;;;60.00;46.45;;;16.40;99.90;;;;;;4889754;29;20468;-91
2023/09/18 01:49:32;;;;;;;57.05;46.42;;;16.20;99.90;;;;;;4871753;29;20467;-92
2023/09/18 01:51:58;;;;;;;70.55;51.42;;;16.10;99.90;;;;;;4874413;29;20466;-91
2023/09/18 01:54:24;;;;;;;75.13;52.58;;;16.10;99.90;;;;;;4870083;29;20502;-91
2023/09/18 01:56:50;;;;;;;69.20;50.78;;;16.40;99.90;;;;;;4874791;29;20415;-91
2023/09/18 01:59:17;;;;;;;70.17;50.27;;;16.40;99.90;;;;;;4868695;29;20518;-90
2023/09/18 02:01:43;;;;;;;77.22;53.67;;;16.60;99.90;;;;;;4875376;29;20758;-91
2023/09/18 02:04:09;;;;;;;76.93;52.55;;;16.20;99.90;;;;;;4867142;29;20434;-93
2023/09/18 02:06:36;;;;;;;78.97;52.73;;;16.20;99.90;;;;;;4875944;29;20446;-91
2023/09/18 02:09:03;;;;;;;105.10;61.15;;;16.30;99.90;;;;;;4874181;29;20498;-91
2023/09/18 02:11:29;;;;;;;95.30;59.80;;;16.50;99.90;;;;;;4870781;29;20419;-90
2023/09/18 02:13:56;;;;;;;83.32;55.30;;;16.70;99.90;;;;;;4874394;29;20423;-91
2023/09/18 02:16:22;;;;;;;78.93;54.72;;;16.30;99.90;;;;;;4885424;29;20427;-91
2023/09/18 02:18:48;;;;;;;127.93;67.17;;;16.30;99.90;;;;;;4890424;29;20522;-91
2023/09/18 02:21:20;;;;;;;84.05;55.20;;;16.30;99.90;;;;;;4867596;29;20505;-93
2023/09/18 02:23:51;;;;;;;94.28;58.78;;;16.30;99.90;;;;;;4875839;29;20423;-92
2023/09/18 02:26:19;;;;;;;68.15;49.30;;;16.70;99.90;;;;;;4868191;29;20825;-91
2023/09/18 02:28:45;;;;;;;85.55;54.78;;;16.30;99.90;;;;;;4891197;29;20702;-92
2023/09/18 02:31:11;;;;;;;61.00;47.70;;;16.50;99.90;;;;;;4882526;29;20918;-91
2023/09/18 02:33:38;;;;;;;85.72;57.17;;;16.30;99.90;;;;;;4875292;29;20828;-91
2023/09/18 02:36:04;;;;;;;84.65;57.10;;;16.50;99.90;;;;;;4874766;29;20930;-92
2023/09/18 02:38:32;;;;;;;83.18;55.45;;;16.40;99.90;;;;;;4869510;29;20412;-92
2023/09/18 02:40:58;;;;;;;85.63;55.67;;;16.40;99.90;;;;;;4891323;29;20532;-91
2023/09/18 02:43:24;;;;;;;81.25;56.05;;;16.60;99.90;;;;;;4868150;29;20544;-92
2023/09/18 02:45:50;;;;;;;93.50;59.78;;;16.70;99.90;;;;;;4875225;29;20422;-92
2023/09/18 02:48:16;;;;;;;68.40;50.50;;;16.40;99.90;;;;;;4882934;29;20417;-91
2023/09/18 02:50:42;;;;;;;84.85;56.53;;;16.60;99.90;;;;;;4874789;29;21004;-93
2023/09/18 02:53:16;;;;;;;72.38;51.53;;;16.50;99.90;;;;;;4867020;29;20418;-92
2023/09/18 02:55:43;;;;;;;88.68;58.03;;;16.50;99.90;;;;;;4874571;29;20926;-93
2023/09/18 02:58:10;;;;;;;80.13;55.88;;;16.90;99.90;;;;;;4867906;29;20502;-92
2023/09/18 03:00:42;;;;;;;86.47;58.63;;;16.80;99.90;;;;;;4873848;29;21069;-92
2023/09/18 03:03:07;;;;;;;70.95;54.00;;;16.70;99.90;;;;;;4875633;29;20462;-92
2023/09/18 03:05:33;;;;;;;85.17;57.17;;;17.00;99.90;;;;;;4873507;29;20517;-92
2023/09/18 03:07:59;;;;;;;103.78;62.88;;;16.60;99.90;;;;;;4874987;29;20442;-92
2023/09/18 03:10:24;;;;;;;96.10;62.20;;;16.90;99.90;;;;;;4868478;29;20499;-93
2023/09/18 03:12:50;;;;;;;92.20;61.10;;;16.90;99.90;;;;;;4874273;29;20468;-93
2023/09/18 03:15:16;;;;;;;86.25;59.35;;;16.70;99.90;;;;;;4869202;29;20907;-93
2023/09/18 03:17:41;;;;;;;90.53;60.60;;;16.70;99.90;;;;;;4877370;29;20902;-92
2023/09/18 03:20:08;;;;;;;76.95;58.05;;;16.70;99.90;;;;;;4871535;29;20448;-91
2023/09/18 03:22:34;;;;;;;112.13;65.90;;;16.70;99.90;;;;;;4876917;29;20930;-91
2023/09/18 03:25:00;;;;;;;80.93;57.27;;;16.90;99.90;;;;;;4878665;29;20546;-91
2023/09/18 03:27:28;;;;;;;90.05;61.38;;;16.80;99.90;;;;;;4887575;29;21016;-91
2023/09/18 03:29:58;;;;;;;82.82;58.58;;;16.80;99.90;;;;;;4877750;29;20514;-93
2023/09/18 03:32:23;;;;;;;75.40;56.30;;;16.80;99.90;;;;;;4872260;29;20426;-92
2023/09/18 03:34:53;;;;;;;79.50;57.55;;;17.20;99.90;;;;;;4877821;29;20428;-93
2023/09/18 03:37:19;;;;;;;86.78;60.55;;;17.10;99.90;;;;;;4887849;29;20544;-91
2023/09/18 03:39:45;;;;;;;85.35;61.60;;;16.90;99.90;;;;;;4876974;29;21059;-92
2023/09/18 03:42:10;;;;;;;71.43;56.10;;;16.90;99.90;;;;;;4871126;29;20427;-90
2023/09/18 03:44:36;;;;;;;83.07;60.27;;;16.90;99.90;;;;;;4877050;29;20914;-91
2023/09/18 03:47:03;;;;;;;69.30;54.50;;;17.10;99.90;;;;;;4877932;29;21018;-91
2023/09/18 03:49:29;;;;;;;70.57;55.42;;;17.00;99.90;;;;;;4872702;29;20937;-89
2023/09/18 03:51:55;;;;;;;82.35;59.58;;;17.30;99.90;;;;;;4893302;29;20433;-92
2023/09/18 03:54:20;;;;;;;70.53;56.33;;;17.60;99.90;;;;;;4888071;29;20438;-92
2023/09/18 03:56:46;;;;;;;67.55;54.13;;;17.10;99.90;;;;;;4876613;29;20491;-92
2023/09/18 03:59:13;;;;;;;72.53;55.60;;;17.10;99.90;;;;;;4871258;29;20430;-91
2023/09/18 04:01:39;;;;;;;80.05;58.58;;;17.30;99.90;;;;;;4876424;29;20419;-90
2023/09/18 04:04:05;;;;;;;62.25;52.00;;;17.30;99.90;;;;;;4893404;29;20943;-91
2023/09/18 04:06:41;;;;;;;63.60;52.90;;;17.20;99.90;;;;;;4872369;29;20521;-92
2023/09/18 04:09:07;;;;;;;63.97;52.20;;;17.30;99.90;;;;;;4870146;29;20431;-92
2023/09/18 04:11:33;;;;;;;71.43;56.00;;;17.20;99.90;;;;;;4877175;29;20426;-90
2023/09/18 04:14:03;;;;;;;54.07;48.23;;;17.40;99.90;;;;;;4876382;29;20489;-93
2023/09/18 04:16:30;;;;;;;61.60;49.40;;;17.40;99.90;;;;;;4888594;29;20430;-90
2023/09/18 04:18:56;;;;;;;60.40;51.00;;;17.80;99.90;;;;;;4876225;29;20482;-91
2023/09/18 04:21:23;;;;;;;56.13;48.63;;;18.10;99.90;;;;;;4872107;29;20430;-93
2023/09/18 04:23:55;;;;;;;53.95;47.22;;;17.70;99.90;;;;;;4892307;29;20423;-91
2023/09/18 04:26:21;;;;;;;50.72;44.83;;;17.90;99.90;;;;;;4870305;29;20481;-94
2023/09/18 04:28:47;;;;;;;54.85;47.90;;;17.90;99.90;;;;;;4892662;29;20492;-91
2023/09/18 04:31:13;;;;;;;47.72;42.70;;;17.80;99.90;;;;;;4885200;29;20450;-91
2023/09/18 04:33:38;;;;;;;48.90;43.63;;;17.60;99.90;;;;;;4877368;29;20439;-90
2023/09/18 04:36:04;;;;;;;51.08;43.97;;;17.60;99.90;;;;;;4875844;29;20415;-91
2023/09/18 04:38:30;;;;;;;47.17;42.17;;;17.60;99.90;;;;;;4872643;29;20729;-89
2023/09/18 04:40:59;;;;;;;51.53;45.87;;;17.60;99.90;;;;;;4891435;29;20427;-91
2023/09/18 04:43:25;;;;;;;44.63;40.13;;;17.70;99.90;;;;;;4871883;29;20946;-90
2023/09/18 04:45:51;;;;;;;45.75;40.97;;;17.80;99.90;;;;;;4876327;29;20423;-89
2023/09/18 04:48:17;;;;;;;48.67;43.45;;;17.70;99.90;;;;;;4869744;29;20437;-91
2023/09/18 04:50:43;;;;;;;43.05;38.65;;;18.00;99.90;;;;;;4877027;29;20438;-90
2023/09/18 04:53:09;;;;;;;44.65;40.10;;;18.00;99.90;;;;;;4868209;29;20928;-93
2023/09/18 04:55:35;;;;;;;44.50;39.80;;;17.50;99.90;;;;;;4893122;29;20434;-90
2023/09/18 04:58:00;;;;;;;44.17;39.63;;;18.00;99.90;;;;;;4875596;29;20438;-90
2023/09/18 05:00:29;;;;;;;46.33;41.53;;;17.80;99.90;;;;;;4871101;29;20425;-89
2023/09/18 05:02:54;;;;;;;44.00;39.42;;;18.10;99.90;;;;;;4891299;29;20445;-91
2023/09/18 05:05:20;;;;;;;42.43;38.07;;;17.80;99.90;;;;;;4870149;29;20467;-90
2023/09/18 05:07:46;;;;;;;44.33;39.67;;;17.80;99.90;;;;;;4891614;29;20984;-88
2023/09/18 05:10:12;;;;;;;48.03;42.83;;;17.80;99.90;;;;;;4870690;29;20433;-89
2023/09/18 05:12:40;;;;;;;46.90;41.35;;;17.80;99.90;;;;;;4879304;29;20457;-91
2023/09/18 05:15:06;;;;;;;45.88;40.75;;;18.00;99.90;;;;;;4893834;29;20420;-90
2023/09/18 05:17:51;;;;;;;45.60;40.75;;;17.80;99.90;;;;;;4894699;29;20497;-90
2023/09/18 05:20:17;;;;;;;43.17;38.65;;;17.80;99.90;;;;;;4878504;29;20499;-89
2023/09/18 05:22:44;;;;;;;41.92;37.45;;;17.80;99.90;;;;;;4893973;29;20422;-89
2023/09/18 05:25:10;;;;;;;43.70;38.95;;;18.60;99.90;;;;;;4878622;29;20792;-91
2023/09/18 05:27:43;;;;;;;42.88;38.20;;;17.90;99.90;;;;;;4893377;29;20456;-89
2023/09/18 05:30:18;;;;;;;41.17;36.80;;;17.80;99.90;;;;;;4879781;29;20920;-91
2023/09/18 05:32:45;;;;;;;43.30;38.80;;;17.70;99.90;;;;;;4875650;29;20409;-88
2023/09/18 05:35:12;;;;;;;38.42;34.40;;;18.10;99.90;;;;;;4894491;29;20548;-89
2023/09/18 05:37:38;;;;;;;39.60;35.40;;;17.90;99.90;;;;;;4893071;29;20464;-89
2023/09/18 05:40:09;;;;;;;43.13;38.47;;;17.80;99.90;;;;;;4878320;29;20820;-92
2023/09/18 05:42:39;;;;;;;39.42;35.20;;;17.50;99.90;;;;;;4878387;29;20428;-90
2023/09/18 05:45:05;;;;;;;42.58;37.80;;;17.80;99.90;;;;;;4877354;29;20425;-89
2023/09/18 05:47:33;;;;;;;36.93;33.03;;;17.90;99.90;;;;;;4894122;29;20445;-90
2023/09/18 05:49:58;;;;;;;38.65;34.05;;;18.20;99.90;;;;;;4893092;29;20429;-89
2023/09/18 05:52:25;;;;;;;39.57;35.33;;;18.00;99.90;;;;;;4878034;29;20432;-88
2023/09/18 05:54:51;;;;;;;36.22;32.78;;;18.00;99.90;;;;;;4877656;29;20420;-90
2023/09/18 05:57:17;;;;;;;33.40;30.00;;;18.20;99.90;;;;;;4893182;29;20429;-90
2023/09/18 05:59:46;;;;;;;34.20;30.60;;;18.00;99.90;;;;;;4878391;29;20429;-91
2023/09/18 06:02:12;;;;;;;35.28;30.52;;;18.00;99.90;;;;;;4877342;29;20904;-89
2023/09/18 06:04:37;;;;;;;34.53;31.02;;;18.10;99.90;;;;;;4878523;29;20452;-90
2023/09/18 06:07:04;;;;;;;32.17;28.83;;;18.60;99.90;;;;;;4877211;29;20786;-88
2023/09/18 06:09:29;;;;;;;35.83;32.03;;;18.10;99.90;;;;;;4878177;29;20419;-90
2023/09/18 06:11:55;;;;;;;27.58;24.67;;;18.10;99.90;;;;;;4892725;29;20421;-90
2023/09/18 06:14:21;;;;;;;31.43;28.03;;;18.60;99.90;;;;;;4878033;29;20409;-90
2023/09/18 06:16:46;;;;;;;31.40;27.83;;;18.20;99.90;;;;;;4877467;29;20900;-89
2023/09/18 06:19:13;;;;;;;31.23;27.83;;;18.20;99.90;;;;;;4877602;29;20417;-91
2023/09/18 06:21:39;;;;;;;27.45;24.67;;;18.70;99.90;;;;;;4893925;29;20421;-89
2023/09/18 06:24:04;;;;;;;29.02;26.02;;;18.30;99.90;;;;;;4877142;29;20453;-90
2023/09/18 06:26:30;;;;;;;32.90;29.40;;;18.30;99.90;;;;;;4878029;29;20445;-89
2023/09/18 06:28:56;;;;;;;30.83;27.65;;;18.30;99.90;;;;;;4907994;29;20421;-89
2023/09/18 06:31:23;;;;;;;29.77;26.70;;;18.40;99.90;;;;;;4878055;29;20508;-90
2023/09/18 06:33:49;;;;;;;28.40;25.42;;;18.50;99.90;;;;;;4877561;29;20421;-90
2023/09/18 06:36:14;;;;;;;32.78;29.30;;;18.40;99.90;;;;;;4893230;29;20425;-90
2023/09/18 06:38:40;;;;;;;30.83;27.60;;;18.40;99.90;;;;;;4893309;29;20430;-90
2023/09/18 06:41:06;;;;;;;36.20;30.40;;;18.60;99.90;;;;;;4877250;29;20593;-90
2023/09/18 06:43:31;;;;;;;31.23;27.60;;;18.40;99.90;;;;;;4893606;29;20417;-90
2023/09/18 06:45:57;;;;;;;34.87;31.10;;;18.80;99.90;;;;;;4876633;29;20448;-90
2023/09/18 06:48:24;;;;;;;36.25;32.17;;;18.60;99.90;;;;;;4878186;29;20468;-92
2023/09/18 06:50:50;;;;;;;35.73;31.47;;;18.70;99.90;;;;;;4880718;29;20417;-90
2023/09/18 06:53:15;;;;;;;38.88;33.40;;;18.70;99.90;;;;;;4882066;29;20454;-90
2023/09/18 06:55:41;;;;;;;40.83;34.25;;;18.60;99.90;;;;;;4881048;29;20429;-90
2023/09/18 06:58:07;;;;;;;47.47;38.17;;;18.80;99.90;;;;;;4881099;29;20500;-89
2023/09/18 07:00:33;;;;;;;43.97;34.78;;;18.60;99.90;;;;;;4881774;29;20409;-90
2023/09/18 07:02:58;;;;;;;56.35;39.88;;;18.50;99.90;;;;;;4880914;29;20920;-92
2023/09/18 07:05:24;;;;;;;47.93;37.43;;;18.60;99.90;;;;;;4882773;29;20549;-91
2023/09/18 07:07:50;;;;;;;77.53;44.50;;;18.60;99.90;;;;;;4895519;29;20816;-92
2023/09/18 07:10:15;;;;;;;75.37;43.60;;;18.50;99.90;;;;;;4881358;29;20428;-93
2023/09/18 07:12:41;;;;;;;119.45;55.63;;;18.70;99.90;;;;;;4895905;29;20476;-92
2023/09/18 07:15:07;;;;;;;91.27;49.50;;;18.40;99.90;;;;;;4881013;29;20444;-92
2023/09/18 07:17:34;;;;;;;90.07;49.53;;;18.40;99.90;;;;;;4880848;29;20538;-92
2023/09/18 07:20:00;;;;;;;99.47;50.50;;;18.40;99.90;;;;;;4880455;29;20409;-92
2023/09/18 07:22:26;;;;;;;77.40;47.33;;;18.70;99.90;;;;;;4881801;29;21023;-91
2023/09/18 07:24:52;;;;;;;70.15;43.28;;;18.70;99.90;;;;;;4880103;29;20798;-92
2023/09/18 07:27:17;;;;;;;65.17;40.90;;;18.60;99.90;;;;;;4881253;29;20444;-93
2023/09/18 07:29:43;;;;;;;53.35;35.50;;;18.40;99.90;;;;;;4882143;29;20429;-94
2023/09/18 07:32:09;;;;;;;47.28;31.63;;;18.80;99.90;;;;;;4880836;29;20824;-92
2023/09/18 07:34:35;;;;;;;34.27;24.30;;;18.30;99.90;;;;;;4880274;29;20846;-94
2023/09/18 07:37:01;;;;;;;30.92;22.17;;;18.40;99.90;;;;;;4882668;29;20476;-93
2023/09/18 07:39:26;;;;;;;30.33;20.02;;;18.60;99.90;;;;;;4881951;29;20777;-93
2023/09/18 07:41:52;;;;;;;20.53;14.77;;;18.40;99.90;;;;;;4879881;29;20444;-92
2023/09/18 07:44:21;;;;;;;22.35;15.75;;;18.10;99.90;;;;;;4881673;29;20413;-95
2023/09/18 07:46:47;;;;;;;42.53;23.52;;;18.30;99.90;;;;;;4878694;29;20444;-93
2023/09/18 07:49:14;;;;;;;19.48;14.27;;;18.30;99.90;;;;;;4880886;29;20417;-93
2023/09/18 07:51:40;;;;;;;20.02;14.70;;;18.40;99.90;;;;;;4880122;29;20425;-93
2023/09/18 07:54:07;;;;;;;32.17;18.08;;;18.20;99.90;;;;;;4880591;29;20885;-92
2023/09/18 07:56:34;;;;;;;30.13;18.45;;;18.40;99.90;;;;;;4879987;29;20420;-92
2023/09/18 07:59:00;;;;;;;26.13;16.95;;;18.60;99.90;;;;;;4880226;29;20418;-92
2023/09/18 08:01:26;;;;;;;40.28;21.25;;;18.40;99.90;;;;;;4879962;29;20777;-94
2023/09/18 08:03:51;;;;;;;33.47;20.80;;;18.40;99.90;;;;;;4879908;29;20449;-93
2023/09/18 08:06:19;;;;;;;25.90;18.92;;;18.50;99.90;;;;;;4882642;29;20417;-94
2023/09/18 08:08:45;;;;;;;23.20;17.10;;;18.50;99.90;;;;;;4879498;29;20842;-92
2023/09/18 08:11:11;;;;;;;33.97;21.45;;;18.50;99.90;;;;;;4879992;29;20422;-94
2023/09/18 08:13:37;;;;;;;43.35;23.75;;;18.60;99.90;;;;;;4879552;29;20420;-91
2023/09/18 08:16:06;;;;;;;37.78;23.80;;;18.60;99.90;;;;;;4879917;29;20423;-93
2023/09/18 08:18:31;;;;;;;29.43;20.83;;;19.00;99.90;;;;;;4880204;29;20789;-92
2023/09/18 08:20:58;;;;;;;35.10;21.83;;;18.60;99.90;;;;;;4879327;29;20504;-93
2023/09/18 08:23:24;;;;;;;31.23;22.10;;;19.00;99.90;;;;;;4880365;29;20417;-91
2023/09/18 08:25:51;;;;;;;55.05;31.20;;;18.70;99.90;;;;;;4878968;29;20421;-92
2023/09/18 08:28:17;;;;;;;53.30;28.27;;;18.60;99.90;;;;;;4879923;29;20468;-93
2023/09/18 08:30:47;;;;;;;37.40;25.60;;;18.70;99.90;;;;;;4879248;29;20889;-91
2023/09/18 08:33:13;;;;;;;36.75;24.35;;;18.70;99.90;;;;;;4880539;29;20478;-93
2023/09/18 08:35:39;;;;;;;31.73;22.88;;;18.70;99.90;;;;;;4879905;29;20428;-90
2023/09/18 08:38:05;;;;;;;41.13;27.15;;;18.70;99.90;;;;;;4879154;29;20405;-92
2023/09/18 08:40:33;;;;;;;36.42;25.08;;;19.00;99.90;;;;;;4880075;29;20424;-92
2023/09/18 08:43:00;;;;;;;38.33;25.88;;;18.80;99.90;;;;;;4878753;29;20511;-92
2023/09/18 08:45:37;;;;;;;32.00;22.88;;;18.70;99.90;;;;;;4879962;29;20500;-92
2023/09/18 08:48:04;;;;;;;33.60;24.73;;;19.00;99.90;;;;;;4878636;29;20856;-92
2023/09/18 08:50:30;;;;;;;31.38;22.45;;;19.10;99.90;;;;;;4879836;29;20427;-92
2023/09/18 08:52:56;;;;;;;30.98;22.05;;;19.20;99.90;;;;;;4878837;29;20472;-93
2023/09/18 08:55:24;;;;;;;28.85;20.83;;;19.30;99.90;;;;;;4878813;29;20504;-93
2023/09/18 08:57:52;;;;;;;22.20;18.03;;;19.40;99.90;;;;;;4880333;29;20421;-92
2023/09/18 09:00:18;;;;;;;26.00;19.77;;;19.60;99.90;;;;;;4877920;29;20428;-92
2023/09/18 09:02:44;;;;;;;22.92;17.08;;;19.70;99.90;;;;;;4881036;29;20421;-94
2023/09/18 09:05:10;;;;;;;19.17;16.83;;;19.90;99.90;;;;;;4879784;29;20414;-91
2023/09/18 09:07:36;;;;;;;29.42;21.45;;;20.30;99.90;;;;;;4880078;29;20500;-93
2023/09/18 09:10:02;;;;;;;24.45;19.13;;;20.10;99.90;;;;;;4878700;29;20923;-93
2023/09/18 09:12:46;;;;;;;19.10;17.00;;;20.10;99.90;;;;;;4879826;29;20821;-93
2023/09/18 09:15:12;;;;;;;26.43;21.20;;;20.20;99.90;;;;;;4880511;29;20481;-93
2023/09/18 09:17:39;;;;;;;21.33;18.17;;;20.20;99.90;;;;;;4878021;29;20421;-93
2023/09/18 09:20:12;;;;;;;21.87;17.47;;;20.20;99.90;;;;;;4882107;29;20428;-93
2023/09/18 09:22:40;;;;;;;20.55;18.10;;;20.20;99.90;;;;;;4878591;29;20444;-94
2023/09/18 09:25:28;;;;;;;20.70;17.92;;;20.80;99.90;;;;;;4884294;29;20436;-94
2023/09/18 09:27:58;;;;;;;19.48;17.02;;;20.30;99.90;;;;;;4879829;29;20441;-91
2023/09/18 09:30:26;;;;;;;22.05;19.65;;;20.30;99.90;;;;;;4878740;29;20517;-94
2023/09/18 09:32:53;;;;;;;21.08;18.60;;;20.20;99.90;;;;;;4879719;29;20730;-93
2023/09/18 09:35:34;;;;;;;24.27;20.17;;;20.50;99.90;;;;;;4877756;29;20417;-94
2023/09/18 09:38:11;;;;;;;20.17;18.13;;;20.30;99.90;;;;;;4895569;29;20512;-94
2023/09/18 09:40:40;;;;;;;19.85;17.42;;;20.10;99.90;;;;;;4878536;29;20421;-94
2023/09/18 09:43:08;;;;;;;21.40;18.30;;;20.30;99.90;;;;;;4879343;29;20487;-92
2023/09/18 09:45:37;;;;;;;21.30;17.70;;;20.40;99.90;;;;;;4878617;29;20426;-92
2023/09/18 09:48:05;;;;;;;23.77;19.63;;;20.40;99.90;;;;;;4877558;29;20433;-94
2023/09/18 09:50:46;;;;;;;20.48;18.27;;;20.40;99.90;;;;;;4878669;29;20441;-94
2023/09/18 09:53:13;;;;;;;20.53;18.57;;;20.50;99.90;;;;;;4877714;29;20429;-93
2023/09/18 09:55:40;;;;;;;21.23;18.93;;;20.80;99.90;;;;;;4878566;29;20452;-92
2023/09/18 09:58:07;;;;;;;21.27;19.17;;;20.90;99.90;;;;;;4877706;29;20420;-93
2023/09/18 10:00:45;;;;;;;18.73;16.93;;;21.00;99.90;;;;;;4877557;29;20416;-92
2023/09/18 10:03:13;;;;;;;17.97;16.27;;;21.10;99.90;;;;;;4879916;29;20421;-95
2023/09/18 10:05:44;;;;;;;19.20;17.40;;;21.10;99.90;;;;;;4877016;29;20405;-93
2023/09/18 10:08:17;;;;;;;17.73;16.00;;;21.10;99.90;;;;;;4878404;29;20469;-93
2023/09/18 10:10:47;;;;;;;20.55;18.60;;;21.20;99.90;;;;;;4877168;29;20537;-94
2023/09/18 10:13:24;;;;;;;18.48;16.80;;;21.50;99.90;;;;;;4895115;29;20419;-94
2023/09/18 10:15:52;;;;;;;22.05;20.05;;;21.10;99.90;;;;;;4879579;29;20417;-92
2023/09/18 10:18:45;;;;;;;20.67;18.77;;;21.50;99.90;;;;;;4877540;29;20456;-94
2023/09/18 10:21:38;;;;;;;19.27;17.67;;;21.40;99.90;;;;;;4881524;29;20421;-95
2023/09/18 10:24:16;;;;;;;19.52;17.67;;;21.70;99.90;;;;;;4878342;29;20421;-94
2023/09/18 10:26:56;;;;;;;20.48;18.65;;;21.90;99.90;;;;;;4881127;29;20445;-94
2023/09/18 10:29:23;;;;;;;41.08;38.03;;;21.90;99.90;;;;;;4878458;29;20750;-93
2023/09/18 10:31:52;;;;;;;38.22;35.22;;;22.40;99.90;;;;;;4877249;29;20440;-95
2023/09/18 10:34:18;;;;;;;16.20;14.80;;;22.20;99.90;;;;;;4879999;29;20772;-93
2023/09/18 10:36:47;;;;;;;20.38;18.65;;;22.30;99.90;;;;;;4877375;29;20810;-91
2023/09/18 10:39:13;;;;;;;27.73;25.63;;;22.80;99.90;;;;;;4878507;29;20413;-93
2023/09/18 10:41:41;;;;;;;20.77;19.13;;;22.60;99.90;;;;;;4877178;29;20419;-93
2023/09/18 10:44:10;;;;;;;18.05;16.60;;;22.90;99.90;;;;;;4878160;29;20434;-92
2023/09/18 10:46:36;;;;;;;22.85;21.08;;;22.70;99.90;;;;;;4879634;29;20440;-91
2023/09/18 10:49:03;;;;;;;12.70;11.60;;;23.00;99.90;;;;;;4878906;29;20418;-93
2023/09/18 10:51:31;;;;;;;14.43;13.30;;;23.00;99.90;;;;;;4877880;29;20417;-92
2023/09/18 10:53:57;;;;;;;50.90;47.22;;;23.30;99.90;;;;;;4876927;29;20444;-91
2023/09/18 10:56:28;;;;;;;31.00;28.83;;;23.60;99.90;;;;;;4881451;29;20425;-95
2023/09/18 10:59:02;;;;;;;22.75;21.05;;;24.00;99.90;;;;;;4876509;29;20417;-92
2023/09/18 11:01:29;;;;;;;17.60;16.15;;;23.70;99.90;;;;;;4878657;29;20460;-90
2023/09/18 11:04:10;;;;;;;12.95;11.95;;;23.20;99.90;;;;;;4877464;29;20489;-93
2023/09/18 11:06:54;;;;;;;9.50;8.70;;;23.10;99.90;;;;;;4879129;29;20492;-93
2023/09/18 11:09:27;;;;;;;16.67;15.33;;;22.80;99.90;;;;;;4878303;29;20432;-92
2023/09/18 11:12:02;;;;;;;12.05;10.95;;;22.70;99.90;;;;;;4877245;29;20950;-92
2023/09/18 11:14:56;;;;;;;10.75;9.90;;;22.80;99.90;;;;;;4879860;29;20508;-91
2023/09/18 11:17:40;;;;;;;10.82;9.85;;;22.80;99.90;;;;;;4877495;29;20432;-94
2023/09/18 11:20:17;;;;;;;7.35;6.75;;;22.90;99.90;;;;;;4878508;29;20425;-95
2023/09/18 11:23:15;;;;;;;9.73;8.93;;;22.70;99.90;;;;;;4880812;29;20441;-91
2023/09/18 11:25:42;;;;;;;7.32;6.63;;;22.60;99.90;;;;;;4873003;29;20493;-93
2023/09/18 11:28:23;;;;;;;12.87;11.87;;;23.00;99.90;;;;;;4878768;29;20483;-94
2023/09/18 11:30:58;;;;;;;5.40;4.90;;;23.50;99.90;;;;;;4879266;29;20432;-93
2023/09/18 11:33:43;;;;;;;7.05;6.25;;;24.00;99.90;;;;;;4877351;29;20744;-93
2023/09/18 11:36:16;;;;;;;14.23;12.82;;;24.40;99.90;;;;;;4881464;29;20777;-92
2023/09/18 11:39:05;;;;;;;13.82;12.63;;;24.70;99.90;;;;;;4879591;29;20413;-93
2023/09/18 11:41:32;;;;;;;6.90;6.20;;;25.00;99.90;;;;;;4879723;29;20789;-92
2023/09/18 11:44:16;;;;;;;4.97;3.90;;;25.10;99.90;;;;;;4880428;29;20530;-92
2023/09/18 11:46:53;;;;;;;5.30;4.78;;;25.10;99.90;;;;;;4879758;29;20891;-92
2023/09/18 11:49:26;;;;;;;6.43;5.13;;;25.00;99.90;;;;;;4882195;29;20504;-94
2023/09/18 11:51:52;;;;;;;5.75;4.95;;;24.70;99.90;;;;;;4879970;29;20447;-95
2023/09/18 11:54:18;;;;;;;6.82;4.70;;;24.30;99.90;;;;;;4896719;29;20417;-93
2023/09/18 11:56:44;;;;;;;15.95;14.23;;;23.90;99.90;;;;;;4880477;29;20801;-93
2023/09/18 11:59:11;;;;;;;11.07;9.52;;;23.90;99.90;;;;;;4880604;29;20432;-92
2023/09/18 12:01:40;;;;;;;6.38;5.03;;;24.30;99.90;;;;;;4881340;29;20420;-92
2023/09/18 12:04:11;;;;;;;12.77;9.77;;;24.10;99.90;;;;;;4880255;29;20429;-94
2023/09/18 12:06:39;;;;;;;6.90;5.20;;;23.90;99.90;;;;;;4881175;29;20861;-94
2023/09/18 12:09:06;;;;;;;9.67;6.83;;;23.50;99.90;;;;;;4879361;29;20461;-90
2023/09/18 12:11:39;;;;;;;6.18;4.75;;;23.90;99.90;;;;;;4880516;29;20964;-91
2023/09/18 12:14:07;;;;;;;6.63;4.07;;;24.50;99.90;;;;;;4879688;29;20417;-93
2023/09/18 12:16:39;;;;;;;4.90;3.20;;;24.90;99.90;;;;;;4881974;29;20418;-92
2023/09/18 12:19:08;;;;;;;5.13;4.60;;;24.80;99.90;;;;;;4880050;29;20459;-91
2023/09/18 12:21:40;;;;;;;6.75;5.57;;;24.70;99.90;;;;;;4880113;29;20454;-93
2023/09/18 12:24:06;;;;;;;5.25;4.57;;;24.30;99.90;;;;;;4882258;29;20413;-92
2023/09/18 12:26:32;;;;;;;6.57;5.73;;;24.20;99.90;;;;;;4879516;29;20499;-94
2023/09/18 12:29:04;;;;;;;4.85;3.42;;;24.40;99.90;;;;;;4895475;29;20501;-92
2023/09/18 12:31:31;;;;;;;5.40;3.13;;;25.10;99.90;;;;;;4881324;29;20549;-94
2023/09/18 12:33:58;;;;;;;4.78;3.10;;;25.50;99.90;;;;;;4895741;29;20476;-92
2023/09/18 12:36:24;;;;;;;4.53;2.40;;;26.10;99.90;;;;;;4880162;29;20468;-92